Slave Lake Airport
CYZH : now visible

Airfield :











YOU CAN JOIN US ON...

 
LOGIN :

Register | Disclaimer

   EN    FR    IT 

 









Legend :    VFR   Marginal VFR   IFR   Intensive IFR   Very Intensive IFR
Visi :
Ceiling :
>= 8 km
>= 3000ft
5 to 8 km
1000 to 3000 ft
1500m to 5 km
500 to 1000 ft
800 to 1500m
200 to 500 ft
< 800m
< 200 ft
Symbols :   Thunderstorms  Fog  Heavy snow  Heavy precipitations  Wind > 20 kt







- Airport Elevation : 1912 ft
- IATA code : YZH


CYZH - Slave Lake

CURRENT METAR :
  • 211000Z AUTO 09004KT 080V150 9SM CLR 05/M01 A2991 RMK SLP140

EXPIRED METARs :
  • 210900Z AUTO VRB02KT 9SM CLR 05/M01 A2990 RMK SLP138
  • 210800Z AUTO 11002KT 9SM CLR 06/M00 A2989 RMK SLP135

TAF TAF CYZH
Valid from the 21 at 07:00 until the 21 at 19:00 UTC


210638Z 2107/2119 VRB03KT P6SM FEW100
BECMG 2114/2116 11012KT RMK FCST BASED ON AUTO OBS. NXT FCST BY 211300Z
CZEG FIR / North America



MET'MAP, your aeronautical weather chart ! - Copyright ORBIFLY December 2007 - Disclaimer

ORBIFLY MET'MAP TEAM :

Programming & Development : Alexandra Zaïnal
Concept & Development : Baudouin d'Aumeries
Co-Development & Prog : Marc-Olivier Méhu
Technical & hardware support : Manuel Goepfert

Contact : metmap@orbifly.com




SOURCES & CREDITS :

   NOAA       Earth
Advisory